Time;durP1;ratioP1;P1;durP2;ratioP2;P2;SDS_P1;SDS_P2;PMS_P1;PMS_P2;Temp;Humidity;BMP_temperature;BMP_pressure;BME280_temperature;BME280_humidity;BME280_pressure;Samples;Min_cycle;Max_cycle;Signal;HPM_P1;HPM_P2
2023/03/19 00:00:36;;;;;;;19.00;7.90;;;;;;;4.96;47.36;99329.02;108768;1253;95593;-75
2023/03/19 00:03:23;;;;;;;20.40;7.40;;;;;;;4.92;47.20;99326.18;108898;1254;110584;-76
2023/03/19 00:05:52;;;;;;;22.90;7.90;;;;;;;4.89;47.37;99328.61;108585;1253;101227;-75
2023/03/19 00:08:19;;;;;;;18.10;6.60;;;;;;;4.86;47.33;99323.83;108871;1253;96719;-76
2023/03/19 00:10:45;;;;;;;16.80;6.10;;;;;;;4.86;47.30;99321.39;108615;1254;95554;-75
2023/03/19 00:13:12;;;;;;;17.40;6.40;;;;;;;4.87;47.48;99321.51;108719;1253;96286;-75
2023/03/19 00:15:40;;;;;;;19.30;6.50;;;;;;;4.88;47.29;99327.11;108585;1254;95679;-75
2023/03/19 00:18:07;;;;;;;19.00;6.50;;;;;;;4.87;47.45;99324.14;108718;1254;95819;-75
2023/03/19 00:20:34;;;;;;;15.90;6.10;;;;;;;4.87;47.43;99321.87;108902;1253;95583;-75
2023/03/19 00:23:01;;;;;;;16.00;5.30;;;;;;;4.88;47.53;99319.00;108638;1254;95679;-75
2023/03/19 00:25:27;;;;;;;16.00;5.50;;;;;;;4.90;47.62;99316.08;108623;1253;111235;-75
2023/03/19 00:27:54;;;;;;;13.00;5.70;;;;;;;4.89;47.59;99316.99;108933;1254;95664;-75
2023/03/19 00:30:22;;;;;;;14.40;5.30;;;;;;;4.88;47.59;99317.57;108776;1254;95723;-75
2023/03/19 00:32:50;;;;;;;15.20;5.60;;;;;;;4.87;47.79;99314.84;108574;1256;95588;-76
2023/03/19 00:35:17;;;;;;;26.20;9.60;;;;;;;4.88;47.80;99316.36;108966;1252;95725;-76
2023/03/19 00:37:43;;;;;;;40.50;14.10;;;;;;;4.86;47.74;99310.32;108612;1253;95938;-76
2023/03/19 00:40:11;;;;;;;24.60;8.30;;;;;;;4.84;47.81;99309.52;108880;1253;95593;-76
2023/03/19 00:42:37;;;;;;;19.90;6.50;;;;;;;4.87;47.68;99315.73;108371;1253;95901;-75
2023/03/19 00:45:05;;;;;;;16.40;6.30;;;;;;;4.87;47.76;99311.50;108529;1254;95626;-75
2023/03/19 00:47:32;;;;;;;15.70;5.70;;;;;;;4.85;47.86;99311.95;108691;1253;95648;-76
2023/03/19 00:49:59;;;;;;;17.10;6.20;;;;;;;4.83;47.78;99310.96;108860;1253;96046;-75
2023/03/19 00:52:26;;;;;;;16.60;6.10;;;;;;;4.82;47.84;99310.50;108891;1256;95681;-75
2023/03/19 00:54:53;;;;;;;15.70;5.80;;;;;;;4.82;48.00;99313.84;108626;1255;95612;-75
2023/03/19 00:57:19;;;;;;;18.20;6.00;;;;;;;4.80;48.00;99308.63;108509;1254;95689;-76
2023/03/19 00:59:47;;;;;;;17.50;6.10;;;;;;;4.83;48.18;99310.08;108558;1253;95619;-76
2023/03/19 01:02:14;;;;;;;17.40;5.70;;;;;;;4.84;48.03;99305.82;108664;1254;95782;-75
2023/03/19 01:04:41;;;;;;;17.60;6.00;;;;;;;4.85;48.06;99309.84;108570;1253;95800;-76
2023/03/19 01:07:10;;;;;;;16.70;6.20;;;;;;;4.86;48.10;99306.30;108852;1254;95615;-76
2023/03/19 01:09:36;;;;;;;15.80;6.20;;;;;;;4.88;48.17;99304.91;108638;1254;95544;-75
2023/03/19 01:12:03;;;;;;;16.60;5.50;;;;;;;4.91;48.21;99306.73;108730;1253;95650;-75
2023/03/19 01:14:31;;;;;;;13.40;5.30;;;;;;;4.94;48.09;99305.02;108891;1252;95578;-76
2023/03/19 01:16:58;;;;;;;17.10;6.00;;;;;;;4.95;48.15;99304.63;108733;1254;95646;-75
2023/03/19 01:19:26;;;;;;;14.30;5.30;;;;;;;4.99;48.24;99306.23;108598;1253;95580;-76
2023/03/19 01:21:52;;;;;;;11.20;4.80;;;;;;;5.02;48.40;99306.95;108673;1253;95646;-75
2023/03/19 01:24:19;;;;;;;14.30;5.90;;;;;;;5.07;48.32;99310.08;108615;1260;95901;-75
2023/03/19 01:26:46;;;;;;;18.50;6.50;;;;;;;5.07;48.33;99311.11;108703;1254;95713;-75
2023/03/19 01:29:13;;;;;;;15.20;5.30;;;;;;;5.07;48.26;99310.23;108727;1256;95644;-76
2023/03/19 01:31:40;;;;;;;13.50;4.80;;;;;;;5.08;48.38;99313.01;108721;1259;96597;-76
2023/03/19 01:34:07;;;;;;;14.10;5.50;;;;;;;5.09;48.38;99316.84;108788;1253;95581;-75
2023/03/19 01:36:33;;;;;;;17.10;6.40;;;;;;;5.08;48.41;99319.19;108952;1254;95632;-76
2023/03/19 01:39:00;;;;;;;19.10;8.10;;;;;;;5.05;48.42;99325.10;108931;1254;95691;-75
2023/03/19 01:41:27;;;;;;;16.90;6.60;;;;;;;5.04;48.41;99323.02;108894;1253;95544;-75
2023/03/19 01:43:54;;;;;;;16.70;5.70;;;;;;;5.02;48.46;99323.48;108762;1258;95654;-76
2023/03/19 01:46:28;;;;;;;13.50;5.50;;;;;;;4.98;48.56;99328.21;108625;1252;101087;-75
2023/03/19 01:49:02;;;;;;;15.70;6.10;;;;;;;4.94;48.55;99327.34;108640;1254;107751;-76
2023/03/19 01:51:31;;;;;;;;;;;;;;;4.90;48.52;99328.38;108689;1255;95610;-75
2023/03/19 01:54:03;;;;;;;16.00;6.00;;;;;;;4.84;48.60;99329.39;108580;1254;95584;-75
2023/03/19 01:56:37;;;;;;;16.60;6.30;;;;;;;4.76;48.48;99327.09;108578;1258;113031;-75
2023/03/19 01:59:11;;;;;;;17.10;6.00;;;;;;;4.70;48.53;99321.73;108512;1254;98946;-75
2023/03/19 02:01:46;;;;;;;16.00;6.30;;;;;;;4.64;48.72;99321.65;108849;1256;107114;-75
2023/03/19 02:04:13;;;;;;;15.70;5.80;;;;;;;4.60;48.61;99323.55;108716;1253;96186;-75
2023/03/19 02:06:43;;;;;;;18.00;6.60;;;;;;;4.58;48.63;99323.46;108687;1253;95616;-76
2023/03/19 02:09:10;;;;;;;16.80;6.60;;;;;;;4.57;48.64;99321.44;108699;1259;110175;-75
2023/03/19 02:11:37;;;;;;;16.40;5.90;;;;;;;4.56;48.73;99314.80;108625;1253;95697;-75
2023/03/19 02:14:03;;;;;;;18.00;6.70;;;;;;;4.56;48.94;99319.86;108603;1254;95623;-75
2023/03/19 02:16:30;;;;;;;16.90;6.60;;;;;;;4.57;48.76;99316.85;108719;1255;95647;-75
2023/03/19 02:18:58;;;;;;;18.60;6.30;;;;;;;4.61;48.79;99321.08;108685;1254;95642;-75
2023/03/19 02:21:25;;;;;;;18.10;6.30;;;;;;;4.62;48.94;99324.02;108693;1254;95707;-76
2023/03/19 02:24:06;;;;;;;18.20;7.10;;;;;;;4.62;48.88;99319.11;108585;1254;95721;-75
2023/03/19 02:26:34;;;;;;;15.20;5.70;;;;;;;4.64;48.95;99319.39;108780;1254;106782;-76
2023/03/19 02:29:03;;;;;;;20.60;6.60;;;;;;;4.65;48.88;99323.02;108661;1252;95721;-75
2023/03/19 02:31:30;;;;;;;17.70;6.60;;;;;;;4.64;49.00;99324.82;108726;1254;95796;-75
2023/03/19 02:34:06;;;;;;;20.40;7.50;;;;;;;4.63;49.03;99330.29;108441;1253;110733;-76
2023/03/19 02:36:50;;;;;;;16.60;6.30;;;;;;;4.64;49.07;99332.73;108677;1252;100995;-76
2023/03/19 02:39:30;;;;;;;18.00;7.50;;;;;;;4.63;49.01;99332.94;108518;1253;107298;-76
2023/03/19 02:42:01;;;;;;;18.10;7.30;;;;;;;4.63;49.01;99333.48;108667;1259;95582;-75
2023/03/19 02:44:27;;;;;;;20.90;8.10;;;;;;;4.62;49.24;99334.22;108908;1254;95652;-76
2023/03/19 02:46:54;;;;;;;20.00;8.20;;;;;;;4.61;49.12;99334.95;108937;1257;95701;-75
2023/03/19 02:49:21;;;;;;;17.40;6.50;;;;;;;4.58;49.14;99334.20;108911;1253;95688;-76
2023/03/19 02:51:48;;;;;;;15.20;5.90;;;;;;;4.58;49.15;99337.04;108531;1254;95681;-75
2023/03/19 02:54:15;;;;;;;14.10;5.50;;;;;;;4.58;49.29;99333.52;108675;1254;95556;-77
2023/03/19 02:56:42;;;;;;;17.10;6.10;;;;;;;4.56;49.30;99335.36;109024;1253;95596;-75
2023/03/19 02:59:08;;;;;;;14.20;5.50;;;;;;;4.54;49.33;99331.04;108805;1254;96823;-76
2023/03/19 03:01:36;;;;;;;15.50;6.10;;;;;;;4.53;49.22;99334.61;108907;1254;107258;-75
2023/03/19 03:04:03;;;;;;;15.60;6.30;;;;;;;4.52;49.39;99327.96;108627;1254;95633;-75
2023/03/19 03:06:31;;;;;;;16.20;5.70;;;;;;;4.51;49.51;99332.75;108923;1253;95581;-75
2023/03/19 03:08:58;;;;;;;16.50;6.10;;;;;;;4.53;49.42;99330.41;108639;1254;110758;-75
2023/03/19 03:11:25;;;;;;;15.50;6.20;;;;;;;4.54;49.39;99330.15;108880;1253;95616;-75
2023/03/19 03:13:51;;;;;;;14.60;5.20;;;;;;;4.55;49.58;99329.59;108666;1254;95649;-76
2023/03/19 03:16:19;;;;;;;15.20;5.30;;;;;;;4.56;49.60;99333.41;108553;1253;95634;-76
2023/03/19 03:18:45;;;;;;;13.80;4.80;;;;;;;4.57;49.51;99338.99;108622;1253;95656;-76
2023/03/19 03:21:13;;;;;;;16.60;5.90;;;;;;;4.57;49.64;99340.21;108635;1253;95784;-77
2023/03/19 03:23:40;;;;;;;12.70;4.70;;;;;;;4.56;49.47;99339.57;108681;1257;95667;-76
2023/03/19 03:26:09;;;;;;;11.80;5.10;;;;;;;4.54;49.78;99336.47;108831;1254;95640;-76
2023/03/19 03:28:35;;;;;;;14.30;5.10;;;;;;;4.54;49.63;99338.05;108743;1254;95668;-76
2023/03/19 03:31:02;;;;;;;14.00;5.70;;;;;;;4.52;49.62;99341.83;108861;1253;95972;-76
2023/03/19 03:33:29;;;;;;;15.90;5.70;;;;;;;4.51;49.68;99343.80;108969;1253;95807;-75
2023/03/19 03:36:04;;;;;;;17.80;6.20;;;;;;;4.50;49.78;99343.34;108911;1253;95605;-75
2023/03/19 03:38:31;;;;;;;14.90;5.30;;;;;;;4.48;49.72;99348.83;108557;1254;95595;-75
2023/03/19 03:40:58;;;;;;;17.00;6.90;;;;;;;4.45;49.84;99347.73;108956;1253;95804;-76
2023/03/19 03:43:26;;;;;;;18.10;6.40;;;;;;;4.44;49.80;99345.86;108677;1253;95685;-76
2023/03/19 03:45:53;;;;;;;18.90;6.80;;;;;;;4.41;49.84;99348.63;108513;1252;96000;-76
2023/03/19 03:48:20;;;;;;;17.00;6.40;;;;;;;4.38;49.74;99354.19;108520;1254;95678;-76
2023/03/19 03:50:47;;;;;;;17.90;6.10;;;;;;;4.37;49.94;99353.73;108876;1254;95542;-76
2023/03/19 03:53:14;;;;;;;13.70;5.80;;;;;;;4.36;49.89;99359.57;108797;1257;95687;-76
2023/03/19 03:55:40;;;;;;;15.10;6.40;;;;;;;4.37;49.89;99356.38;108624;1254;95717;-76
2023/03/19 03:58:11;;;;;;;16.00;6.20;;;;;;;4.35;49.83;99359.97;108677;1254;95599;-76
2023/03/19 04:00:39;;;;;;;15.20;6.00;;;;;;;4.32;50.00;99355.68;108478;1253;107812;-76
2023/03/19 04:03:05;;;;;;;13.10;5.40;;;;;;;4.30;49.98;99358.89;108540;1253;95714;-75
2023/03/19 04:05:32;;;;;;;15.50;6.10;;;;;;;4.29;50.08;99362.48;108646;1253;95705;-76
2023/03/19 04:08:00;;;;;;;15.50;5.70;;;;;;;4.28;49.96;99361.30;108787;1254;95828;-76
2023/03/19 04:10:26;;;;;;;17.20;6.30;;;;;;;4.27;50.02;99350.98;108594;1257;95699;-76
2023/03/19 04:12:53;;;;;;;16.50;6.20;;;;;;;4.26;50.06;99354.16;108906;1253;95573;-75
2023/03/19 04:15:20;;;;;;;16.50;6.10;;;;;;;4.28;50.20;99350.77;108647;1254;95628;-76
2023/03/19 04:17:47;;;;;;;17.20;6.50;;;;;;;4.27;50.24;99354.32;108555;1254;111226;-76
2023/03/19 04:20:16;;;;;;;13.70;5.50;;;;;;;4.26;50.08;99353.31;108577;1253;95682;-76
2023/03/19 04:22:44;;;;;;;15.00;5.30;;;;;;;4.24;50.13;99355.13;108811;1253;107274;-75
2023/03/19 04:25:11;;;;;;;16.20;5.40;;;;;;;4.23;49.93;99355.91;108570;1254;95579;-75
2023/03/19 04:27:37;;;;;;;15.90;5.50;;;;;;;4.22;50.29;99359.77;108651;1254;96009;-76
2023/03/19 04:30:05;;;;;;;15.60;6.20;;;;;;;4.23;50.21;99353.40;108736;1254;95672;-75
2023/03/19 04:32:34;;;;;;;13.50;5.10;;;;;;;4.22;50.16;99352.41;108719;1254;95675;-76
2023/03/19 04:35:01;;;;;;;15.80;5.20;;;;;;;4.21;50.12;99358.09;108582;1254;106515;-75
2023/03/19 04:37:28;;;;;;;14.60;5.20;;;;;;;4.19;50.18;99354.83;108542;1254;95641;-75
2023/03/19 04:39:55;;;;;;;17.00;5.50;;;;;;;4.20;50.36;99354.64;108898;1253;95567;-75
2023/03/19 04:42:22;;;;;;;15.20;5.90;;;;;;;4.22;50.43;99354.88;108643;1252;95715;-75
2023/03/19 04:44:49;;;;;;;13.70;5.10;;;;;;;4.24;50.35;99355.12;108689;1254;95669;-75
2023/03/19 04:47:15;;;;;;;18.30;6.50;;;;;;;4.28;50.30;99355.16;108608;1254;95619;-76
2023/03/19 04:49:42;;;;;;;15.10;5.50;;;;;;;4.31;50.27;99355.55;108745;1257;95575;-76
2023/03/19 04:52:09;;;;;;;13.20;5.40;;;;;;;4.32;50.56;99357.26;108553;1254;110504;-75
2023/03/19 04:54:35;;;;;;;15.40;5.60;;;;;;;4.34;50.34;99355.77;108922;1253;96034;-76
2023/03/19 04:57:02;;;;;;;17.50;5.70;;;;;;;4.36;50.53;99354.98;108684;1254;95695;-75
2023/03/19 04:59:28;;;;;;;13.20;4.80;;;;;;;4.38;50.37;99352.46;108734;1254;95688;-76
2023/03/19 05:01:58;;;;;;;13.10;5.00;;;;;;;4.40;50.51;99349.20;109020;1253;95624;-76
2023/03/19 05:04:26;;;;;;;15.00;5.30;;;;;;;4.42;50.50;99350.70;108725;1254;100815;-78
2023/03/19 05:06:52;;;;;;;11.70;4.70;;;;;;;4.44;50.48;99349.20;108512;1254;107284;-75
2023/03/19 05:09:19;;;;;;;15.30;5.30;;;;;;;4.48;50.58;99352.54;108741;1253;95604;-75
2023/03/19 05:11:46;;;;;;;15.40;5.40;;;;;;;4.52;50.49;99352.90;108933;1253;95657;-75
2023/03/19 05:14:12;;;;;;;16.50;5.50;;;;;;;4.56;50.56;99351.14;108684;1254;96708;-76
2023/03/19 05:16:39;;;;;;;15.30;5.50;;;;;;;4.58;50.63;99351.94;108587;1257;95674;-75
2023/03/19 05:19:05;;;;;;;17.50;5.80;;;;;;;4.61;50.69;99350.74;108698;1254;96043;-77
2023/03/19 05:21:32;;;;;;;13.40;5.70;;;;;;;4.66;50.64;99350.19;108915;1253;95619;-75
2023/03/19 05:23:59;;;;;;;16.00;6.00;;;;;;;4.70;50.59;99352.84;108642;1254;95697;-76
2023/03/19 05:26:25;;;;;;;17.40;5.60;;;;;;;4.73;50.56;99353.39;108713;1253;95772;-76
2023/03/19 05:28:52;;;;;;;16.80;5.80;;;;;;;4.79;50.71;99352.45;108748;1256;95774;-76
2023/03/19 05:31:19;;;;;;;13.70;5.20;;;;;;;4.84;50.60;99350.11;108567;1254;96172;-76
2023/03/19 05:33:45;;;;;;;13.80;5.40;;;;;;;4.90;50.72;99352.11;108721;1253;95630;-76
2023/03/19 05:36:14;;;;;;;17.10;6.30;;;;;;;4.98;50.94;99348.63;108511;1253;95677;-76
2023/03/19 05:38:41;;;;;;;15.40;5.90;;;;;;;5.07;50.85;99353.16;108808;1253;106145;-76
2023/03/19 05:41:08;;;;;;;17.70;6.30;;;;;;;5.12;50.79;99351.86;108785;1253;95782;-76
2023/03/19 05:43:34;;;;;;;19.20;6.00;;;;;;;5.15;50.87;99354.16;108936;1253;95897;-76
2023/03/19 05:46:01;;;;;;;17.40;6.20;;;;;;;5.18;50.82;99351.55;108930;1252;96098;-76
2023/03/19 05:48:28;;;;;;;15.20;6.00;;;;;;;5.24;50.94;99352.73;108613;1253;95715;-76
2023/03/19 05:50:55;;;;;;;14.90;5.60;;;;;;;5.31;50.96;99356.41;108747;1253;95744;-76
2023/03/19 05:53:22;;;;;;;15.50;5.70;;;;;;;5.36;50.92;99352.48;108656;1254;95651;-76
2023/03/19 05:55:49;;;;;;;16.00;6.10;;;;;;;5.42;50.91;99357.14;108448;1253;95682;-76
2023/03/19 05:58:16;;;;;;;13.50;5.40;;;;;;;5.47;51.01;99357.64;108882;1253;95628;-76
2023/03/19 06:00:42;;;;;;;14.50;5.60;;;;;;;5.53;50.94;99354.72;108857;1253;95625;-76
2023/03/19 06:03:09;;;;;;;17.60;6.30;;;;;;;5.60;51.05;99356.48;108742;1252;95645;-76
2023/03/19 06:05:37;;;;;;;18.00;6.30;;;;;;;5.66;50.97;99356.59;108960;1253;95611;-76
2023/03/19 06:08:05;;;;;;;17.70;6.50;;;;;;;5.68;51.02;99358.23;108662;1253;97154;-76
2023/03/19 06:10:35;;;;;;;14.40;5.60;;;;;;;5.75;51.08;99360.19;108638;1253;95682;-75
2023/03/19 06:13:03;;;;;;;15.80;5.80;;;;;;;5.79;51.06;99362.08;108834;1253;108596;-75
2023/03/19 06:15:33;;;;;;;14.10;5.60;;;;;;;5.84;51.09;99364.14;108805;1254;96469;-76
2023/03/19 06:18:02;;;;;;;18.10;6.20;;;;;;;5.92;51.14;99367.30;108756;1253;95785;-76
2023/03/19 06:20:29;;;;;;;15.30;6.10;;;;;;;6.00;51.07;99369.23;108718;1253;111366;-76
2023/03/19 06:22:57;;;;;;;18.50;6.20;;;;;;;6.04;51.04;99369.02;108886;1253;95896;-76
2023/03/19 06:25:24;;;;;;;18.20;6.00;;;;;;;6.11;51.15;99370.08;108711;1254;95858;-75
2023/03/19 06:27:50;;;;;;;14.90;6.20;;;;;;;6.17;51.19;99369.63;108622;1254;95767;-76
2023/03/19 06:30:17;;;;;;;14.90;5.70;;;;;;;6.23;51.12;99371.63;108594;1254;95701;-75
2023/03/19 06:32:44;;;;;;;15.00;6.20;;;;;;;6.26;51.17;99367.27;108387;1253;95893;-75
2023/03/19 06:35:10;;;;;;;16.80;5.90;;;;;;;6.30;51.17;99373.20;108744;1252;95682;-75
2023/03/19 06:37:37;;;;;;;13.20;5.70;;;;;;;6.35;51.10;99369.42;108563;1254;95722;-76
2023/03/19 06:40:05;;;;;;;15.10;5.60;;;;;;;6.42;51.12;99367.17;108533;1253;95672;-76
2023/03/19 06:42:32;;;;;;;16.90;6.10;;;;;;;6.49;51.17;99365.56;108773;1253;95868;-76
2023/03/19 06:44:59;;;;;;;15.00;5.70;;;;;;;6.56;51.17;99366.30;108597;1253;96147;-76
2023/03/19 06:47:28;;;;;;;17.00;6.20;;;;;;;6.63;51.27;99371.73;108332;1254;95647;-76
2023/03/19 06:49:55;;;;;;;16.20;5.90;;;;;;;6.70;51.15;99372.59;108401;1252;95640;-75
2023/03/19 06:52:22;;;;;;;15.20;6.00;;;;;;;6.79;51.27;99372.86;108580;1253;95982;-75
2023/03/19 06:54:49;;;;;;;13.80;5.40;;;;;;;6.85;51.29;99378.69;108641;1253;96017;-75
2023/03/19 06:57:16;;;;;;;15.90;6.00;;;;;;;6.93;51.37;99377.59;108880;1253;96214;-76
2023/03/19 06:59:42;;;;;;;14.90;5.80;;;;;;;7.00;51.43;99371.91;108854;1253;95688;-75
2023/03/19 07:02:11;;;;;;;17.80;5.90;;;;;;;7.06;51.31;99370.59;108523;1253;95768;-75
2023/03/19 07:04:38;;;;;;;20.90;7.60;;;;;;;7.15;51.47;99370.41;108660;1253;95704;-75
2023/03/19 07:07:05;;;;;;;33.20;13.50;;;;;;;7.26;51.50;99368.44;108901;1253;95596;-75
2023/03/19 07:09:32;;;;;;;28.90;12.10;;;;;;;7.36;51.35;99369.48;108631;1253;95643;-75
2023/03/19 07:11:58;;;;;;;18.80;7.90;;;;;;;7.44;51.42;99370.30;108608;1254;95686;-76
2023/03/19 07:14:25;;;;;;;17.00;6.90;;;;;;;7.51;51.58;99368.36;108636;1254;95863;-75
2023/03/19 07:16:52;;;;;;;17.80;6.70;;;;;;;7.58;51.36;99371.47;108938;1253;111065;-76
2023/03/19 07:19:20;;;;;;;15.50;6.40;;;;;;;7.61;51.47;99369.56;108561;1253;96085;-75
2023/03/19 07:21:47;;;;;;;14.90;6.30;;;;;;;7.69;51.51;99372.27;108507;1253;95706;-75
2023/03/19 07:24:13;;;;;;;14.80;5.90;;;;;;;7.74;51.41;99377.08;108662;1253;95667;-75
2023/03/19 07:26:41;;;;;;;15.00;5.80;;;;;;;7.80;51.35;99374.28;108883;1253;96087;-76
2023/03/19 07:29:08;;;;;;;19.70;7.10;;;;;;;7.89;51.45;99372.02;108909;1252;95669;-75
2023/03/19 07:31:35;;;;;;;15.00;6.30;;;;;;;7.95;51.37;99369.06;108681;1252;95646;-75
2023/03/19 07:34:02;;;;;;;15.70;5.60;;;;;;;8.01;51.35;99368.34;108678;1253;95607;-75
2023/03/19 07:36:30;;;;;;;24.10;6.90;;;;;;;8.03;51.41;99365.76;108883;1253;95574;-76
2023/03/19 07:38:56;;;;;;;12.30;5.50;;;;;;;8.06;51.44;99367.71;108908;1253;95801;-78
2023/03/19 07:41:23;;;;;;;16.20;5.90;;;;;;;8.14;51.53;99365.30;108862;1253;95688;-75
2023/03/19 07:43:50;;;;;;;16.70;6.20;;;;;;;8.23;51.50;99367.11;108836;1252;108415;-78
2023/03/19 07:46:17;;;;;;;34.50;7.50;;;;;;;8.29;51.48;99366.58;108772;1253;95691;-79
2023/03/19 07:48:43;;;;;;;16.80;5.80;;;;;;;8.32;51.44;99363.58;108794;1253;96532;-76
2023/03/19 07:51:10;;;;;;;15.40;6.10;;;;;;;8.38;51.50;99368.52;108857;1253;95606;-79
2023/03/19 07:53:36;;;;;;;16.40;6.20;;;;;;;8.43;51.42;99371.41;108882;1253;95740;-76
2023/03/19 07:56:04;;;;;;;18.70;6.70;;;;;;;8.47;51.51;99373.46;108917;1253;95633;-76
2023/03/19 07:58:31;;;;;;;15.10;6.10;;;;;;;8.57;51.62;99370.62;108725;1253;95588;-76
2023/03/19 08:00:58;;;;;;;16.50;6.30;;;;;;;8.66;51.45;99375.08;108680;1253;96014;-76
2023/03/19 08:03:25;;;;;;;14.10;5.60;;;;;;;8.68;51.46;99377.55;108561;1252;95897;-75
2023/03/19 08:05:51;;;;;;;14.10;5.60;;;;;;;8.71;51.44;99374.22;108669;1254;95674;-76
2023/03/19 08:08:19;;;;;;;13.40;5.50;;;;;;;8.75;51.59;99373.10;108525;1252;95701;-76
2023/03/19 08:10:49;;;;;;;13.90;5.70;;;;;;;8.86;51.55;99373.33;108700;1253;95651;-76
2023/03/19 08:13:16;;;;;;;16.50;5.70;;;;;;;8.93;51.36;99372.35;108624;1253;111982;-77
2023/03/19 08:15:45;;;;;;;11.60;5.20;;;;;;;8.98;51.42;99370.27;108628;1254;95982;-77
2023/03/19 08:18:12;;;;;;;10.70;5.50;;;;;;;9.04;51.61;99373.48;108418;1253;107084;-77
2023/03/19 08:20:39;;;;;;;15.90;5.70;;;;;;;9.08;51.31;99371.98;108657;1253;95787;-77
2023/03/19 08:23:06;;;;;;;13.20;5.20;;;;;;;9.12;51.55;99368.59;108516;1253;95667;-78
2023/03/19 08:25:38;;;;;;;11.40;4.90;;;;;;;9.18;51.45;99367.32;108393;1253;111345;-77
2023/03/19 08:28:05;;;;;;;14.90;6.00;;;;;;;9.25;51.38;99369.56;108363;1253;101155;-77
2023/03/19 08:30:32;;;;;;;14.80;5.60;;;;;;;9.28;51.37;99363.52;108500;1253;95665;-76
2023/03/19 08:32:59;;;;;;;12.80;5.90;;;;;;;9.29;51.47;99365.61;108422;1253;95877;-77
2023/03/19 08:35:27;;;;;;;16.80;5.70;;;;;;;9.33;51.54;99368.89;108425;1253;95763;-77
2023/03/19 08:37:54;;;;;;;17.00;6.20;;;;;;;9.37;51.35;99364.35;108402;1253;96104;-77
2023/03/19 08:40:23;;;;;;;15.20;5.80;;;;;;;9.40;51.34;99366.30;108710;1253;100909;-77
2023/03/19 08:42:50;;;;;;;14.10;5.20;;;;;;;9.45;51.31;99366.02;108606;1253;107199;-76
2023/03/19 08:45:17;;;;;;;15.40;6.70;;;;;;;9.47;51.42;99357.53;108464;1254;95745;-76
2023/03/19 08:47:44;;;;;;;13.20;5.50;;;;;;;9.49;51.36;99360.26;108529;1253;95698;-76
2023/03/19 08:50:12;;;;;;;13.40;5.70;;;;;;;9.49;51.33;99361.98;108460;1253;96067;-77
2023/03/19 08:52:39;;;;;;;16.70;6.10;;;;;;;9.54;51.35;99364.38;108472;1253;95765;-76
2023/03/19 08:55:07;;;;;;;15.70;6.90;;;;;;;9.63;51.44;99364.34;108611;1253;95571;-77
2023/03/19 08:57:34;;;;;;;15.50;6.00;;;;;;;9.70;51.54;99360.00;108295;1253;177595;-77
2023/03/19 09:00:04;;;;;;;14.60;6.20;;;;;;;9.75;51.39;99360.73;108502;1253;96100;-77
2023/03/19 09:02:32;;;;;;;13.50;5.70;;;;;;;9.78;51.31;99354.69;108690;1253;110953;-77
2023/03/19 09:04:59;;;;;;;15.30;5.90;;;;;;;9.85;51.40;99359.20;108440;1254;100338;-78
2023/03/19 09:07:26;;;;;;;12.40;5.80;;;;;;;9.88;51.35;99357.42;108583;1253;95647;-75
2023/03/19 09:09:52;;;;;;;13.20;5.70;;;;;;;9.90;51.33;99355.02;108751;1253;95624;-76
2023/03/19 09:12:19;;;;;;;12.60;5.30;;;;;;;9.93;51.31;99348.96;108743;1253;95693;-78
2023/03/19 09:14:47;;;;;;;13.30;5.30;;;;;;;9.99;51.38;99356.87;108523;1253;95986;-78
2023/03/19 09:17:14;;;;;;;13.10;5.40;;;;;;;10.04;51.25;99360.25;108456;1253;95679;-78
2023/03/19 09:19:41;;;;;;;13.70;5.80;;;;;;;10.07;51.13;99358.81;108873;1253;95694;-78
2023/03/19 09:22:07;;;;;;;16.60;6.10;;;;;;;10.11;51.19;99359.98;108526;1256;95634;-78
2023/03/19 09:24:34;;;;;;;11.90;5.10;;;;;;;10.14;51.15;99356.09;108619;1253;95683;-78
2023/03/19 09:27:01;;;;;;;13.30;5.20;;;;;;;10.24;51.33;99360.92;108432;1253;95700;-78
2023/03/19 09:29:29;;;;;;;12.40;5.50;;;;;;;10.33;51.12;99351.84;108457;1253;95657;-78
2023/03/19 09:31:55;;;;;;;12.60;5.60;;;;;;;10.34;51.03;99349.60;108799;1253;95609;-78
2023/03/19 09:34:22;;;;;;;13.60;5.70;;;;;;;10.34;50.98;99350.66;108794;1253;95606;-78
2023/03/19 09:36:49;;;;;;;13.80;5.60;;;;;;;10.35;51.19;99346.19;108575;1253;96278;-78
2023/03/19 09:39:16;;;;;;;12.40;5.40;;;;;;;10.38;51.03;99344.04;108651;1253;96536;-78
2023/03/19 09:42:20;;;;;;;11.50;5.30;;;;;;;10.41;51.06;99338.88;108757;1254;95625;-78
2023/03/19 09:44:48;;;;;;;12.50;5.20;;;;;;;10.45;50.97;99332.98;108818;1253;95591;-78
2023/03/19 09:47:31;;;;;;;15.40;6.20;;;;;;;10.45;51.02;99328.91;108539;1254;111402;-78
2023/03/19 09:50:04;;;;;;;14.30;5.70;;;;;;;10.50;51.08;99332.30;108492;1253;100925;-77
2023/03/19 09:52:41;;;;;;;12.00;5.40;;;;;;;10.50;50.92;99329.44;108448;1253;107560;-78
2023/03/19 10:00:01;;;;;;;14.30;5.40;;;;;;;10.61;50.80;99327.65;108199;1259;96972;-82
2023/03/19 10:02:43;;;;;;;15.20;5.60;;;;;;;10.62;50.77;99326.11;108178;1259;109726;-80
2023/03/19 10:05:41;;;;;;;12.40;4.90;;;;;;;10.71;50.78;99331.35;108244;1259;99092;-77
2023/03/19 10:08:32;;;;;;;11.50;4.80;;;;;;;10.73;50.70;99333.02;108262;1259;105824;-79
2023/03/19 10:11:17;;;;;;;11.80;5.00;;;;;;;10.75;50.76;99325.07;108226;1259;95662;-81
2023/03/19 10:14:14;;;;;;;9.90;4.60;;;;;;;10.77;50.77;99320.52;108266;1259;95695;-85
2023/03/19 10:16:54;;;;;;;9.90;4.70;;;;;;;10.79;50.69;99317.15;108175;1259;110946;-83
2023/03/19 10:19:44;;;;;;;12.20;5.10;;;;;;;10.87;50.69;99314.98;108156;1259;100667;-76
2023/03/19 10:22:20;;;;;;;10.20;4.90;;;;;;;10.96;50.66;99319.88;108159;1259;108002;-83
2023/03/19 10:24:49;;;;;;;13.30;5.50;;;;;;;11.06;50.45;99315.30;108283;1259;95745;-84
2023/03/19 10:27:19;;;;;;;10.40;4.90;;;;;;;11.17;50.56;99311.48;108168;1259;96221;-76
2023/03/19 10:29:51;;;;;;;10.20;5.00;;;;;;;11.23;50.63;99309.50;108216;1259;111350;-82
2023/03/19 10:32:28;;;;;;;11.80;5.30;;;;;;;11.31;50.65;99307.30;108171;1258;100583;-82
2023/03/19 10:35:03;;;;;;;9.50;4.80;;;;;;;11.36;50.55;99302.32;108104;1253;107739;-79
2023/03/19 10:37:34;;;;;;;12.00;5.30;;;;;;;11.35;50.42;99300.48;108474;1252;95616;-83
2023/03/19 10:40:15;;;;;;;11.70;4.70;;;;;;;11.39;50.46;99296.29;108550;1252;95723;-82
2023/03/19 10:43:03;;;;;;;9.30;4.50;;;;;;;11.47;50.51;99291.97;108633;1252;111321;-83
2023/03/19 10:46:31;;;;;;;12.40;4.90;;;;;;;11.52;50.57;99291.59;108598;1253;99495;-83
2023/03/19 10:49:15;;;;;;;16.00;5.60;;;;;;;11.61;50.38;99291.28;108305;1255;109755;-79
2023/03/19 10:51:45;;;;;;;15.70;5.30;;;;;;;11.72;50.30;99289.97;108570;1253;96666;-77
2023/03/19 10:54:23;;;;;;;11.00;4.50;;;;;;;11.83;50.45;99288.09;108373;1253;95864;-78
2023/03/19 10:56:53;;;;;;;12.50;5.00;;;;;;;11.87;50.29;99284.24;108728;1253;111334;-76
2023/03/19 10:59:30;;;;;;;11.50;4.90;;;;;;;11.88;50.31;99282.73;108397;1253;100791;-82
2023/03/19 11:02:03;;;;;;;12.90;4.80;;;;;;;11.94;50.20;99275.41;108801;1253;107082;-85
2023/03/19 11:04:32;;;;;;;9.50;4.60;;;;;;;11.96;50.03;99268.27;108371;1253;95921;-80
2023/03/19 11:07:32;;;;;;;12.30;5.00;;;;;;;12.02;50.22;99261.48;108793;1252;96638;-83
2023/03/19 11:10:28;;;;;;;11.40;4.40;;;;;;;12.15;50.04;99257.33;108435;1254;111243;-84
2023/03/19 11:13:04;;;;;;;11.30;4.40;;;;;;;12.18;49.90;99258.63;108594;1254;100717;-77
2023/03/19 11:15:35;;;;;;;9.20;4.50;;;;;;;12.25;49.83;99254.44;108585;1253;107640;-80
2023/03/19 11:18:23;;;;;;;9.10;4.30;;;;;;;12.28;49.86;99249.54;108436;1253;95705;-77
2023/03/19 11:20:58;;;;;;;9.50;4.50;;;;;;;12.31;49.81;99244.20;108374;1256;96002;-77
2023/03/19 11:23:30;;;;;;;8.50;4.10;;;;;;;12.39;49.78;99240.34;108405;1253;111354;-77
2023/03/19 11:26:00;;;;;;;11.60;4.70;;;;;;;12.47;49.77;99234.04;108723;1253;99785;-77
2023/03/19 11:28:32;;;;;;;11.60;4.60;;;;;;;12.55;49.70;99226.18;108451;1252;107209;-78
2023/03/19 11:31:10;;;;;;;10.50;4.60;;;;;;;12.56;49.45;99225.38;108629;1252;95676;-77
2023/03/19 11:33:44;;;;;;;10.80;4.90;;;;;;;12.53;49.56;99223.85;108516;1253;95673;-77
2023/03/19 11:36:17;;;;;;;10.50;4.30;;;;;;;12.48;49.46;99220.44;108837;1253;111193;-76